• Join FlightAware (Why Join?)
  • Login
  • US Flag 
10:21PM EDT


 

Airport Tracker/Info


-or-


 

Live Flight TrackerFlight Track Log ✈ UAL1116 ✈ 11-Jun-2014 ✈ KEWR - KBOS

Flight Track Log - Related Links

Times and Time Zones

All times are in EDT time to prevent confusion due to time zone crossing. See the UAL1116 flight status page for this flight to view local times or setup timezone preferences in your user account.

Time Position Orientation Groundspeed Altitude Reporting Facility
EDT Latitude Longitude Course Direction KTS MPH feet Rate Location/Type
04:31PM 40.7167 -74.1500 North 178 205 1,200  Level New York TRACON
04:32PM 40.7667 -74.1167 27° Northeast 223 257 3,300 2,400 Climbing New York TRACON
04:35PM 40.8703 -73.9472 51° Northeast 289 333 9,200 2,280 Climbing Boston Center
04:36PM 40.9242 -73.8561 52° Northeast 315 362 11,200 1,860 Climbing Boston Center
04:37PM 40.8633 -73.9000 North  Level FlightAware Approximate
04:37PM 40.9897 -73.7542 50° Northeast 360 414 13,000  Level Boston Center
04:38PM 41.0647 -73.6369 50° Northeast 381 438 15,800 2,460 Climbing Boston Center
04:39PM 41.1358 -73.5258 50° Northeast 392 451 18,100 1,800 Climbing Boston Center
04:40PM 41.2036 -73.4172 50° Northeast 405 466 19,600 1,380 Climbing Boston Center
04:41PM 41.2517 -73.2575 68° East 430 495 21,000 660 Climbing Boston Center
04:42PM 41.2894 -73.1175 70° East 431 496 21,000  Level Boston Center
04:43PM 41.3308 -72.9628 70° East 438 504 21,000  Level Boston Center
04:44PM 41.3711 -72.8086 71° East 438 504 21,000  Level Boston Center
04:45PM 41.4200 -72.6222 71° East 441 507 21,000  Level Boston Center
04:46PM 41.4608 -72.4669 71° East 441 507 21,000  Level Boston Center
04:47PM 41.5003 -72.3131 71° East 441 507 21,000 -1,440 Level Boston Center
04:53PM 41.7249 -71.4307 69° East 321 369 10,700 -1,560 Descending FlightAware ADS-B (KASH)
04:54PM 41.7578 -71.3726 46° Northeast 305 351 10,700  Level FlightAware ADS-B (KASH)
04:55PM 41.8322 -71.2704 46° Northeast 286 329 10,700 -600 Level FlightAware ADS-B (KASH)
04:56PM 41.8755 -71.2399 22° Northeast 297 342 9,600 -1,860 Descending FlightAware ADS-B (KASH)
04:56PM 41.8970 -71.2289 20° North 294 338 9,100 -1,740 Descending FlightAware ADS-B (KOWD)
04:56PM 41.9184 -71.2191 18° North 290 334 8,500 -1,680 Descending FlightAware ADS-B (KOWD)
04:57PM 41.9888 -71.1863 20° North 280 322 7,100 -1,620 Descending FlightAware ADS-B (KOWD)
04:57PM 42.0134 -71.1744 20° North 278 320 6,600 -1,560 Descending FlightAware ADS-B (KOWD)
04:58PM 42.0365 -71.1632 20° North 276 318 6,100 -1,440 Descending FlightAware ADS-B (KOWD)
04:58PM 42.0560 -71.1538 19° North 266 306 5,700 -1,500 Descending FlightAware ADS-B (KOWD)
04:58PM 42.0832 -71.1409 20° North 257 296 5,100 -1,800 Descending FlightAware ADS-B (KOWD)
04:59PM 42.1047 -71.1305 20° North 253 291 4,500 -1,680 Descending FlightAware ADS-B (KOWD)
04:59PM 42.1234 -71.1215 19° North 244 281 4,100 -900 Descending FlightAware ADS-B (KOWD)
04:59PM 42.1471 -71.1103 20° North 228 262 3,900 -600 Descending FlightAware ADS-B (KOWD)
05:00PM 42.1671 -71.1007 20° North 220 253 3,700 -1,080 Descending FlightAware ADS-B (KOWD)
05:00PM 42.1846 -71.0922 20° North 217 250 3,200 -1,380 Descending FlightAware ADS-B (KOWD)
05:00PM 42.1988 -71.0853 20° North 214 246 2,900 -1,140 Descending FlightAware ADS-B (KOWD)
05:01PM 42.2120 -71.0789 20° North 206 237 2,200 -900 Descending FlightAware ADS-B (KOWD)
05:02PM 42.2922 -71.0417 20° North 186 214 1,300 -840 Descending Boston Center
05:03PM 42.3364 -71.0186 21° North 164 189 400 -540 Descending Boston Center
05:04PM 42.3711 -71.0011 20° North 163 188 300 -120 Descending Boston Center
05:06PM 42.3630 -71.0064 North  Level Estimated